Heroic Leader — C6ZD2 — position and weather

sailwx.info

Track history (hours):
 
Tides and Currents Weather Stations Pressure Air Temp Water Temp Dewpoint Dewpoint Depression Visibility Wind Speed Wind Dir Waves Ship Positions

Heroic Leader

Last reported at 2017-Apr-27 23:11 UTC. Time now 2017-Apr-28 12:01 UTC.
Position N 44°13' E 013°56'.

Length 200 m; draft 8.8 m.

Type: Cargo ship. MMSI: 311052700.

Date/timePositionNaut miles runAvg speedWind from/ knotsBaromVisibWave heightAir tempDewpointWater temp
2017-Apr-27 23:11N 44°13' E 013°56'315.3
2017-Apr-27 23:00N 44°15' E 013°54'815.2
2017-Apr-27 22:30N 44°22' E 013°48'715.0
2017-Apr-27 22:01N 44°28' E 013°42'714.9
2017-Apr-27 21:31N 44°34' E 013°36'714.7
2017-Apr-27 21:01N 44°40' E 013°30'714.6
2017-Apr-27 20:30N 44°46' E 013°24'714.6
2017-Apr-27 20:00N 44°52' E 013°19'715.0
2017-Apr-27 19:30N 44°59' E 013°13'815.0
2017-Apr-27 19:00N 45°05' E 013°07'714.0
2017-Apr-27 18:30N 45°11' E 013°03'713.7
2017-Apr-27 18:01N 45°18' E 013°03'612.7
2017-Apr-27 17:31N 45°24' E 013°05'714.0
2017-Apr-27 17:00N 45°29' E 013°12'714.4
2017-Apr-27 16:30N 45°34' E 013°20'815.2
2017-Apr-27 16:00N 45°37' E 013°30'714.0
2017-Apr-27 15:31N 45°35' E 013°39'3 6.7
2017-Apr-27 15:00N 45°34' E 013°44'0 0.4
2017-Apr-27 13:58N 45°34' E 013°44'0 0.0
2017-Apr-27 13:22N 45°34' E 013°44'0 0.0
2017-Apr-27 12:55N 45°34' E 013°44'0 0.0
2017-Apr-27 12:25N 45°34' E 013°44'0 0.0
2017-Apr-27 11:55N 45°34' E 013°44'0 0.0
2017-Apr-27 11:28N 45°34' E 013°44'0 0.0
2017-Apr-27 10:55N 45°34' E 013°44'0 0.0
2017-Apr-27 10:25N 45°34' E 013°44'0 0.0
2017-Apr-27 09:55N 45°34' E 013°44'0 0.0
2017-Apr-27 09:28N 45°34' E 013°44'0 0.0
2017-Apr-27 08:55N 45°34' E 013°44'0 0.0
2017-Apr-27 08:25N 45°34' E 013°44'0 0.0
2017-Apr-27 07:55N 45°34' E 013°44'0 0.0
2017-Apr-27 07:28N 45°34' E 013°44'0 0.0
2017-Apr-27 06:58N 45°34' E 013°44'0 0.0
2017-Apr-27 06:22N 45°34' E 013°44'0 0.0
2017-Apr-27 05:58N 45°34' E 013°44'0 0.0
2017-Apr-27 05:28N 45°34' E 013°44'0 0.0
2017-Apr-27 04:55N 45°34' E 013°44'0 0.0
2017-Apr-27 04:28N 45°34' E 013°44'0 0.0
2017-Apr-27 03:55N 45°34' E 013°44'0 0.0
2017-Apr-27 03:28N 45°34' E 013°44'0 0.0
2017-Apr-27 02:58N 45°34' E 013°44'0 0.0
2017-Apr-27 02:28N 45°34' E 013°44'0 0.0
2017-Apr-27 01:52N 45°34' E 013°44'0 0.0
2017-Apr-27 01:25N 45°34' E 013°44'0 0.0
2017-Apr-27 00:46N 45°34' E 013°44'0 0.0
2017-Apr-27 00:28N 45°34' E 013°44'0 0.0
2017-Apr-26 23:52N 45°34' E 013°44'0 0.0
2017-Apr-26 23:16N 45°34' E 013°44'0 0.0
2017-Apr-26 22:58N 45°34' E 013°44'0 0.0
2017-Apr-26 22:25N 45°34' E 013°44'0 0.0
2017-Apr-26 21:58N 45°34' E 013°44'0 0.0
2017-Apr-26 21:16N 45°34' E 013°44'0 0.0
2017-Apr-26 20:55N 45°34' E 013°44'0 0.0
2017-Apr-26 20:28N 45°34' E 013°44'0 0.0
2017-Apr-26 19:58N 45°34' E 013°44'0 0.0
2017-Apr-26 19:28N 45°34' E 013°44'1 1.5
2017-Apr-26 19:01N 45°34' E 013°43'3 5.7
2017-Apr-26 18:30N 45°34' E 013°39'2 3.9
2017-Apr-26 18:00N 45°35' E 013°37'1 1.9
2017-Apr-26 17:31N 45°34' E 013°35'3 6.2
2017-Apr-26 17:01N 45°34' E 013°31'611.4
2017-Apr-26 16:30N 45°31' E 013°24'815.9
2017-Apr-26 16:00N 45°26' E 013°16'714.9
2017-Apr-26 15:30N 45°19' E 013°12'816.4
2017-Apr-26 15:00N 45°11' E 013°14'816.1
2017-Apr-26 14:30N 45°03' E 013°17'1616.0
2017-Apr-26 13:30N 44°50' E 013°29'815.9
2017-Apr-26 13:00N 44°43' E 013°35'816.0
2017-Apr-26 12:30N 44°36' E 013°41'816.0
2017-Apr-26 12:00N 44°29' E 013°47'816.0
2017-Apr-26 11:30N 44°23' E 013°53'816.1
2017-Apr-26 11:00N 44°16' E 013°59'816.0
2017-Apr-26 10:30N 44°09' E 014°05'915.9
2017-Apr-26 09:57N 44°02' E 014°13'58613.3
2017-Apr-24 13:48N 37°27' E 023°44'415.4
2017-Apr-24 13:30N 37°32' E 023°43'815.4
2017-Apr-24 13:00N 37°39' E 023°42'815.7
2017-Apr-24 12:30N 37°47' E 023°38'715.0
2017-Apr-24 12:00N 37°54' E 023°37'3 6.9
2017-Apr-24 11:30N 37°58' E 023°36'0 0.0
2017-Apr-24 10:58N 37°58' E 023°36'0 0.0
2017-Apr-24 10:28N 37°58' E 023°36'0 0.0
2017-Apr-24 09:58N 37°58' E 023°36'0 0.0
2017-Apr-24 09:28N 37°58' E 023°36'0 0.0
2017-Apr-24 08:58N 37°58' E 023°36'0 0.0
2017-Apr-24 08:28N 37°58' E 023°36'0 0.0
2017-Apr-24 07:58N 37°58' E 023°36'0 0.0
2017-Apr-24 07:28N 37°58' E 023°36'0 0.0
2017-Apr-24 06:58N 37°58' E 023°36'0 0.0
2017-Apr-24 06:28N 37°58' E 023°36'0 0.0
2017-Apr-24 05:58N 37°58' E 023°36'0 0.0
2017-Apr-24 05:28N 37°58' E 023°36'0 0.0
2017-Apr-24 04:58N 37°58' E 023°36'1 1.4
2017-Apr-24 04:30N 37°57' E 023°36'2 3.9
2017-Apr-24 04:00N 37°55' E 023°36'1 1.2
2017-Apr-24 03:30N 37°55' E 023°36'1 1.6
2017-Apr-24 03:01N 37°54' E 023°37'2 3.3
2017-Apr-24 02:30N 37°53' E 023°38'510.4
2017-Apr-24 02:00N 37°48' E 023°41'510.7
2017-Apr-24 01:30N 37°43' E 023°44'510.7
2017-Apr-24 01:00N 37°39' E 023°48'611.2
2017-Apr-24 00:30N 37°35' E 023°54'4 7.4
2017-Apr-24 00:00N 37°34' E 023°58'0 0.4
2017-Apr-23 23:30N 37°34' E 023°58'1 0.4
2017-Apr-23 21:34N 37°34' E 023°58'0 0.8
2017-Apr-23 21:29N 37°34' E 023°58'1 1.6
2017-Apr-23 21:00N 37°35' E 023°59'5 9.0
2017-Apr-23 20:29N 37°31' E 024°03'813.9
2017-Apr-23 19:55N 37°23' E 024°05'716.0
2017-Apr-23 19:30N 37°16' E 024°05'816.3
2017-Apr-23 19:00N 37°08' E 024°05'816.7
2017-Apr-23 18:30N 36°60' E 024°05'1816.6
2017-Apr-23 17:25N 36°42' E 024°05'42815.0
2017-Apr-22 12:58N 31°19' E 029°43'714.7
2017-Apr-22 12:28N 31°13' E 029°48'8 0.6
2017-Apr-21 23:17N 31°20' E 029°44'83 5.6
2017-Apr-21 08:28N 31°60' E 031°09'716.1
2017-Apr-21 08:00N 32°03' E 031°17'815.6
2017-Apr-21 07:30N 32°07' E 031°25'815.5
2017-Apr-21 07:00N 32°11' E 031°33'815.5
2017-Apr-21 06:30N 32°15' E 031°41'815.6
2017-Apr-21 06:00N 32°18' E 031°50'815.8
2017-Apr-21 05:30N 32°22' E 031°58'6416.0
2017-Apr-21 01:31N 32°54' E 033°04'916.9
2017-Apr-21 01:00N 32°58' E 033°12'816.8
2017-Apr-21 00:31N 33°02' E 033°21'816.9
2017-Apr-21 00:01N 33°06' E 033°30'917.2
2017-Apr-20 23:31N 33°10' E 033°39'917.1
2017-Apr-20 23:01N 33°15' E 033°48'816.9
2017-Apr-20 22:30N 33°19' E 033°57'916.6
2017-Apr-20 22:00N 33°23' E 034°05'816.4
2017-Apr-20 21:31N 33°27' E 034°14'816.3
2017-Apr-20 21:01N 33°31' E 034°22'816.1
2017-Apr-20 20:30N 33°35' E 034°31'815.5
2017-Apr-20 20:01N 33°39' E 034°39'714.2
2017-Apr-20 19:31N 33°42' E 034°46'714.3
2017-Apr-20 19:01N 33°46' E 034°54'914.3
2017-Apr-20 18:24N 33°50' E 035°03'812.9
2017-Apr-20 17:47N 33°54' E 035°11'611.2
2017-Apr-20 17:18N 33°55' E 035°17'411.6
2017-Apr-20 16:59N 33°55' E 035°22'611.7
2017-Apr-20 16:30N 33°55' E 035°29'2 0.2
2017-Apr-20 05:42N 33°56' E 035°31'0 1.0
2017-Apr-20 05:30N 33°57' E 035°31'0 0.8
2017-Apr-20 04:55N 33°57' E 035°31'0 0.7
2017-Apr-20 04:30N 33°57' E 035°32'3 2.9
2017-Apr-20 03:33N 33°56' E 035°29'0 7.9
2017-Apr-20 03:30N 33°56' E 035°28'1912.2
2017-Apr-20 01:55N 33°49' E 035°06'3315.8
2017-Apr-19 23:48N 33°25' E 034°38'3715.9
2017-Apr-19 21:29N 32°57' E 034°10'815.4
2017-Apr-19 20:57N 32°51' E 034°04'715.1
2017-Apr-19 20:30N 32°46' E 033°58'815.0
2017-Apr-19 20:00N 32°41' E 033°52'7715.4
2017-Apr-19 14:59N 31°47' E 032°46'2814.2
2017-Apr-19 13:00N 31°26' E 032°24'2410.2
2017-Apr-19 10:36N 31°02' E 032°19'2 8.9
2017-Apr-19 10:20N 30°60' E 032°19'  
Track history (hours):
 
Tides and Currents Weather Stations Pressure Air Temp Water Temp Dewpoint Dewpoint Depression Visibility Wind Speed Wind Dir Waves Ship Positions

Heroic Leader

Last reported at 2017-Apr-27 23:11 UTC. Time now 2017-Apr-28 12:01 UTC.
Position N 44°13' E 013°56'.

Length 200 m; draft 8.8 m.

Type: Cargo ship. MMSI: 311052700.

Date/timePositionNaut miles runAvg speedWind from/ knotsBaromVisibWave heightAir tempDewpointWater temp
2017-Apr-27 23:11N 44°13' E 013°56'315.3
2017-Apr-27 23:00N 44°15' E 013°54'815.2
2017-Apr-27 22:30N 44°22' E 013°48'715.0
2017-Apr-27 22:01N 44°28' E 013°42'714.9
2017-Apr-27 21:31N 44°34' E 013°36'714.7
2017-Apr-27 21:01N 44°40' E 013°30'714.6
2017-Apr-27 20:30N 44°46' E 013°24'714.6
2017-Apr-27 20:00N 44°52' E 013°19'715.0
2017-Apr-27 19:30N 44°59' E 013°13'815.0
2017-Apr-27 19:00N 45°05' E 013°07'714.0
2017-Apr-27 18:30N 45°11' E 013°03'713.7
2017-Apr-27 18:01N 45°18' E 013°03'612.7
2017-Apr-27 17:31N 45°24' E 013°05'714.0
2017-Apr-27 17:00N 45°29' E 013°12'714.4
2017-Apr-27 16:30N 45°34' E 013°20'815.2
2017-Apr-27 16:00N 45°37' E 013°30'714.0
2017-Apr-27 15:31N 45°35' E 013°39'3 6.7
2017-Apr-27 15:00N 45°34' E 013°44'0 0.4
2017-Apr-27 13:58N 45°34' E 013°44'0 0.0
2017-Apr-27 13:22N 45°34' E 013°44'0 0.0
2017-Apr-27 12:55N 45°34' E 013°44'0 0.0
2017-Apr-27 12:25N 45°34' E 013°44'0 0.0
2017-Apr-27 11:55N 45°34' E 013°44'0 0.0
2017-Apr-27 11:28N 45°34' E 013°44'0 0.0
2017-Apr-27 10:55N 45°34' E 013°44'0 0.0
2017-Apr-27 10:25N 45°34' E 013°44'0 0.0
2017-Apr-27 09:55N 45°34' E 013°44'0 0.0
2017-Apr-27 09:28N 45°34' E 013°44'0 0.0
2017-Apr-27 08:55N 45°34' E 013°44'0 0.0
2017-Apr-27 08:25N 45°34' E 013°44'0 0.0
2017-Apr-27 07:55N 45°34' E 013°44'0 0.0
2017-Apr-27 07:28N 45°34' E 013°44'0 0.0
2017-Apr-27 06:58N 45°34' E 013°44'0 0.0
2017-Apr-27 06:22N 45°34' E 013°44'0 0.0
2017-Apr-27 05:58N 45°34' E 013°44'0 0.0
2017-Apr-27 05:28N 45°34' E 013°44'0 0.0
2017-Apr-27 04:55N 45°34' E 013°44'0 0.0
2017-Apr-27 04:28N 45°34' E 013°44'0 0.0
2017-Apr-27 03:55N 45°34' E 013°44'0 0.0
2017-Apr-27 03:28N 45°34' E 013°44'0 0.0
2017-Apr-27 02:58N 45°34' E 013°44'0 0.0
2017-Apr-27 02:28N 45°34' E 013°44'0 0.0
2017-Apr-27 01:52N 45°34' E 013°44'0 0.0
2017-Apr-27 01:25N 45°34' E 013°44'0 0.0
2017-Apr-27 00:46N 45°34' E 013°44'0 0.0
2017-Apr-27 00:28N 45°34' E 013°44'0 0.0
2017-Apr-26 23:52N 45°34' E 013°44'0 0.0
2017-Apr-26 23:16N 45°34' E 013°44'0 0.0
2017-Apr-26 22:58N 45°34' E 013°44'0 0.0
2017-Apr-26 22:25N 45°34' E 013°44'0 0.0
2017-Apr-26 21:58N 45°34' E 013°44'0 0.0
2017-Apr-26 21:16N 45°34' E 013°44'0 0.0
2017-Apr-26 20:55N 45°34' E 013°44'0 0.0
2017-Apr-26 20:28N 45°34' E 013°44'0 0.0
2017-Apr-26 19:58N 45°34' E 013°44'0 0.0
2017-Apr-26 19:28N 45°34' E 013°44'1 1.5
2017-Apr-26 19:01N 45°34' E 013°43'3 5.7
2017-Apr-26 18:30N 45°34' E 013°39'2 3.9
2017-Apr-26 18:00N 45°35' E 013°37'1 1.9
2017-Apr-26 17:31N 45°34' E 013°35'3 6.2
2017-Apr-26 17:01N 45°34' E 013°31'611.4
2017-Apr-26 16:30N 45°31' E 013°24'815.9
2017-Apr-26 16:00N 45°26' E 013°16'714.9
2017-Apr-26 15:30N 45°19' E 013°12'816.4
2017-Apr-26 15:00N 45°11' E 013°14'816.1
2017-Apr-26 14:30N 45°03' E 013°17'1616.0
2017-Apr-26 13:30N 44°50' E 013°29'815.9
2017-Apr-26 13:00N 44°43' E 013°35'816.0
2017-Apr-26 12:30N 44°36' E 013°41'816.0
2017-Apr-26 12:00N 44°29' E 013°47'816.0
2017-Apr-26 11:30N 44°23' E 013°53'816.1
2017-Apr-26 11:00N 44°16' E 013°59'816.0
2017-Apr-26 10:30N 44°09' E 014°05'915.9
2017-Apr-26 09:57N 44°02' E 014°13'58613.3
2017-Apr-24 13:48N 37°27' E 023°44'415.4
2017-Apr-24 13:30N 37°32' E 023°43'815.4
2017-Apr-24 13:00N 37°39' E 023°42'815.7
2017-Apr-24 12:30N 37°47' E 023°38'715.0
2017-Apr-24 12:00N 37°54' E 023°37'3 6.9
2017-Apr-24 11:30N 37°58' E 023°36'0 0.0
2017-Apr-24 10:58N 37°58' E 023°36'0 0.0
2017-Apr-24 10:28N 37°58' E 023°36'0 0.0
2017-Apr-24 09:58N 37°58' E 023°36'0 0.0
2017-Apr-24 09:28N 37°58' E 023°36'0 0.0
2017-Apr-24 08:58N 37°58' E 023°36'0 0.0
2017-Apr-24 08:28N 37°58' E 023°36'0 0.0
2017-Apr-24 07:58N 37°58' E 023°36'0 0.0
2017-Apr-24 07:28N 37°58' E 023°36'0 0.0
2017-Apr-24 06:58N 37°58' E 023°36'0 0.0
2017-Apr-24 06:28N 37°58' E 023°36'0 0.0
2017-Apr-24 05:58N 37°58' E 023°36'0 0.0
2017-Apr-24 05:28N 37°58' E 023°36'0 0.0
2017-Apr-24 04:58N 37°58' E 023°36'1 1.4
2017-Apr-24 04:30N 37°57' E 023°36'2 3.9
2017-Apr-24 04:00N 37°55' E 023°36'1 1.2
2017-Apr-24 03:30N 37°55' E 023°36'1 1.6
2017-Apr-24 03:01N 37°54' E 023°37'2 3.3
2017-Apr-24 02:30N 37°53' E 023°38'510.4
2017-Apr-24 02:00N 37°48' E 023°41'510.7
2017-Apr-24 01:30N 37°43' E 023°44'510.7
2017-Apr-24 01:00N 37°39' E 023°48'611.2
2017-Apr-24 00:30N 37°35' E 023°54'4 7.4
2017-Apr-24 00:00N 37°34' E 023°58'0 0.4
2017-Apr-23 23:30N 37°34' E 023°58'1 0.4
2017-Apr-23 21:34N 37°34' E 023°58'0 0.8
2017-Apr-23 21:29N 37°34' E 023°58'1 1.6
2017-Apr-23 21:00N 37°35' E 023°59'5 9.0
2017-Apr-23 20:29N 37°31' E 024°03'813.9
2017-Apr-23 19:55N 37°23' E 024°05'716.0
2017-Apr-23 19:30N 37°16' E 024°05'816.3
2017-Apr-23 19:00N 37°08' E 024°05'816.7
2017-Apr-23 18:30N 36°60' E 024°05'1816.6
2017-Apr-23 17:25N 36°42' E 024°05'42815.0
2017-Apr-22 12:58N 31°19' E 029°43'714.7
2017-Apr-22 12:28N 31°13' E 029°48'8 0.6
2017-Apr-21 23:17N 31°20' E 029°44'83 5.6
2017-Apr-21 08:28N 31°60' E 031°09'716.1
2017-Apr-21 08:00N 32°03' E 031°17'815.6
2017-Apr-21 07:30N 32°07' E 031°25'815.5
2017-Apr-21 07:00N 32°11' E 031°33'815.5
2017-Apr-21 06:30N 32°15' E 031°41'815.6
2017-Apr-21 06:00N 32°18' E 031°50'815.8
2017-Apr-21 05:30N 32°22' E 031°58'6416.0
2017-Apr-21 01:31N 32°54' E 033°04'916.9
2017-Apr-21 01:00N 32°58' E 033°12'816.8
2017-Apr-21 00:31N 33°02' E 033°21'816.9
2017-Apr-21 00:01N 33°06' E 033°30'917.2
2017-Apr-20 23:31N 33°10' E 033°39'917.1
2017-Apr-20 23:01N 33°15' E 033°48'816.9
2017-Apr-20 22:30N 33°19' E 033°57'916.6
2017-Apr-20 22:00N 33°23' E 034°05'816.4
2017-Apr-20 21:31N 33°27' E 034°14'816.3
2017-Apr-20 21:01N 33°31' E 034°22'816.1
2017-Apr-20 20:30N 33°35' E 034°31'815.5
2017-Apr-20 20:01N 33°39' E 034°39'714.2
2017-Apr-20 19:31N 33°42' E 034°46'714.3
2017-Apr-20 19:01N 33°46' E 034°54'914.3
2017-Apr-20 18:24N 33°50' E 035°03'812.9
2017-Apr-20 17:47N 33°54' E 035°11'611.2
2017-Apr-20 17:18N 33°55' E 035°17'411.6
2017-Apr-20 16:59N 33°55' E 035°22'611.7
2017-Apr-20 16:30N 33°55' E 035°29'2 0.2
2017-Apr-20 05:42N 33°56' E 035°31'0 1.0
2017-Apr-20 05:30N 33°57' E 035°31'0 0.8
2017-Apr-20 04:55N 33°57' E 035°31'0 0.7
2017-Apr-20 04:30N 33°57' E 035°32'3 2.9
2017-Apr-20 03:33N 33°56' E 035°29'0 7.9
2017-Apr-20 03:30N 33°56' E 035°28'1912.2
2017-Apr-20 01:55N 33°49' E 035°06'3315.8
2017-Apr-19 23:48N 33°25' E 034°38'3715.9
2017-Apr-19 21:29N 32°57' E 034°10'815.4
2017-Apr-19 20:57N 32°51' E 034°04'715.1
2017-Apr-19 20:30N 32°46' E 033°58'815.0
2017-Apr-19 20:00N 32°41' E 033°52'7715.4
2017-Apr-19 14:59N 31°47' E 032°46'2814.2
2017-Apr-19 13:00N 31°26' E 032°24'2410.2
2017-Apr-19 10:36N 31°02' E 032°19'2 8.9
2017-Apr-19 10:20N 30°60' E 032°19'  

Dump ship's entire track history